Terminal Aerodrome Forecast
Issued by NWS

Home | Current Version | Previous Version | Text Only | Print | Product List | Glossary On
Versions: 1 2 3 4 5 6 7 8 9 10 11 12 13
000
FTPA31 PHFO 281126
TAFHOG
TAF
PHOG 281126Z 2812/2912 06010KT P6SM VCSH FEW035 BKN050
     FM281900 05020G28KT P6SM FEW035 SCT060
     FM290500 05012G20KT P6SM FEW035 SCT060
      AMD LTD TO VIS AND WIND TIL 281600=

USA.gov is the U.S. government's official web portal to all federal, state and local government web resources and services.